sensor_id;sensor_type;location;lat;lon;timestamp;pressure;altitude;pressure_sealevel;temperature;humidity
65376;BME280;51976;47.332;9.404;2024-01-11T00:00:04;93248.16;;;-3.21;100.00
65376;BME280;51976;47.332;9.404;2024-01-11T00:02:30;93247.22;;;-3.14;100.00
65376;BME280;51976;47.332;9.404;2024-01-11T00:04:55;93255.38;;;-3.09;100.00
65376;BME280;51976;47.332;9.404;2024-01-11T00:07:20;93244.06;;;-3.24;100.00
65376;BME280;51976;47.332;9.404;2024-01-11T00:09:46;93252.84;;;-3.17;100.00
65376;BME280;51976;47.332;9.404;2024-01-11T00:12:11;93248.72;;;-3.04;100.00
65376;BME280;51976;47.332;9.404;2024-01-11T00:14:37;93249.56;;;-2.76;100.00
65376;BME280;51976;47.332;9.404;2024-01-11T00:17:02;93247.31;;;-2.73;100.00
65376;BME280;51976;47.332;9.404;2024-01-11T00:19:27;93249.56;;;-2.69;100.00
65376;BME280;51976;47.332;9.404;2024-01-11T00:21:53;93246.09;;;-2.49;100.00
65376;BME280;51976;47.332;9.404;2024-01-11T00:24:18;93253.59;;;-2.46;100.00
65376;BME280;51976;47.332;9.404;2024-01-11T00:26:44;93245.66;;;-2.46;100.00
65376;BME280;51976;47.332;9.404;2024-01-11T00:29:09;93243.81;;;-2.52;100.00
65376;BME280;51976;47.332;9.404;2024-01-11T00:31:35;93241.38;;;-2.53;100.00
65376;BME280;51976;47.332;9.404;2024-01-11T00:34:01;93250.94;;;-2.46;100.00
65376;BME280;51976;47.332;9.404;2024-01-11T00:36:26;93253.56;;;-2.52;100.00
65376;BME280;51976;47.332;9.404;2024-01-11T00:38:53;93253.41;;;-2.72;100.00
65376;BME280;51976;47.332;9.404;2024-01-11T00:41:19;93261.81;;;-2.62;100.00
65376;BME280;51976;47.332;9.404;2024-01-11T00:43:44;93252.41;;;-2.71;100.00
65376;BME280;51976;47.332;9.404;2024-01-11T00:46:09;93258.72;;;-2.93;100.00
65376;BME280;51976;47.332;9.404;2024-01-11T00:48:35;93262.00;;;-2.91;100.00
65376;BME280;51976;47.332;9.404;2024-01-11T00:51:00;93252.56;;;-3.00;100.00
65376;BME280;51976;47.332;9.404;2024-01-11T00:53:25;93257.44;;;-3.04;100.00
65376;BME280;51976;47.332;9.404;2024-01-11T00:55:56;93255.31;;;-3.15;100.00
65376;BME280;51976;47.332;9.404;2024-01-11T00:58:21;93257.22;;;-3.30;100.00
65376;BME280;51976;47.332;9.404;2024-01-11T01:00:46;93258.41;;;-3.33;100.00
65376;BME280;51976;47.332;9.404;2024-01-11T01:03:12;93260.66;;;-3.30;100.00
65376;BME280;51976;47.332;9.404;2024-01-11T01:05:37;93254.56;;;-3.30;100.00
65376;BME280;51976;47.332;9.404;2024-01-11T01:08:03;93259.22;;;-3.32;100.00
65376;BME280;51976;47.332;9.404;2024-01-11T01:10:28;93258.69;;;-3.43;100.00
65376;BME280;51976;47.332;9.404;2024-01-11T01:12:54;93260.41;;;-3.56;100.00
65376;BME280;51976;47.332;9.404;2024-01-11T01:15:19;93265.44;;;-3.55;100.00
65376;BME280;51976;47.332;9.404;2024-01-11T01:17:44;93266.97;;;-3.67;100.00
65376;BME280;51976;47.332;9.404;2024-01-11T01:20:10;93268.78;;;-3.46;100.00
65376;BME280;51976;47.332;9.404;2024-01-11T01:22:36;93268.31;;;-3.56;100.00
65376;BME280;51976;47.332;9.404;2024-01-11T01:25:01;93269.34;;;-3.51;100.00
65376;BME280;51976;47.332;9.404;2024-01-11T01:27:27;93268.78;;;-3.46;100.00
65376;BME280;51976;47.332;9.404;2024-01-11T01:29:52;93270.31;;;-3.37;100.00
65376;BME280;51976;47.332;9.404;2024-01-11T01:32:18;93270.81;;;-3.05;100.00
65376;BME280;51976;47.332;9.404;2024-01-11T01:34:43;93268.13;;;-3.12;100.00
65376;BME280;51976;47.332;9.404;2024-01-11T01:37:09;93272.81;;;-3.08;100.00
65376;BME280;51976;47.332;9.404;2024-01-11T01:39:37;93278.34;;;-3.24;100.00
65376;BME280;51976;47.332;9.404;2024-01-11T01:42:03;93276.59;;;-3.38;100.00
65376;BME280;51976;47.332;9.404;2024-01-11T01:44:28;93277.97;;;-3.21;100.00
65376;BME280;51976;47.332;9.404;2024-01-11T01:46:54;93268.06;;;-3.19;100.00
65376;BME280;51976;47.332;9.404;2024-01-11T01:49:19;93275.50;;;-3.22;100.00
65376;BME280;51976;47.332;9.404;2024-01-11T01:51:47;93283.06;;;-3.19;100.00
65376;BME280;51976;47.332;9.404;2024-01-11T01:54:13;93283.31;;;-3.35;100.00
65376;BME280;51976;47.332;9.404;2024-01-11T01:56:39;93284.13;;;-3.35;100.00
65376;BME280;51976;47.332;9.404;2024-01-11T01:59:05;93284.56;;;-3.10;100.00
65376;BME280;51976;47.332;9.404;2024-01-11T02:01:30;93289.91;;;-3.03;100.00
65376;BME280;51976;47.332;9.404;2024-01-11T02:03:57;93291.09;;;-3.06;100.00
65376;BME280;51976;47.332;9.404;2024-01-11T02:06:25;93288.56;;;-2.93;100.00
65376;BME280;51976;47.332;9.404;2024-01-11T02:08:52;93299.06;;;-2.78;100.00
65376;BME280;51976;47.332;9.404;2024-01-11T02:11:20;93292.19;;;-2.73;100.00
65376;BME280;51976;47.332;9.404;2024-01-11T02:13:46;93299.81;;;-2.84;100.00
65376;BME280;51976;47.332;9.404;2024-01-11T02:16:13;93301.31;;;-2.75;100.00
65376;BME280;51976;47.332;9.404;2024-01-11T02:18:38;93297.06;;;-2.69;100.00
65376;BME280;51976;47.332;9.404;2024-01-11T02:21:06;93296.94;;;-2.61;100.00
65376;BME280;51976;47.332;9.404;2024-01-11T02:23:36;93298.47;;;-2.46;100.00
65376;BME280;51976;47.332;9.404;2024-01-11T02:26:06;93289.22;;;-2.63;100.00
65376;BME280;51976;47.332;9.404;2024-01-11T02:28:32;93297.31;;;-2.64;100.00
65376;BME280;51976;47.332;9.404;2024-01-11T02:30:57;93301.22;;;-2.60;100.00
65376;BME280;51976;47.332;9.404;2024-01-11T02:33:23;93294.50;;;-2.63;100.00
65376;BME280;51976;47.332;9.404;2024-01-11T02:35:48;93298.06;;;-2.49;100.00
65376;BME280;51976;47.332;9.404;2024-01-11T02:38:14;93299.63;;;-2.83;100.00
65376;BME280;51976;47.332;9.404;2024-01-11T02:40:41;93294.22;;;-2.96;100.00
65376;BME280;51976;47.332;9.404;2024-01-11T02:43:08;93300.06;;;-2.79;100.00
65376;BME280;51976;47.332;9.404;2024-01-11T02:45:34;93304.75;;;-2.96;100.00
65376;BME280;51976;47.332;9.404;2024-01-11T02:47:59;93303.56;;;-2.93;100.00
65376;BME280;51976;47.332;9.404;2024-01-11T02:50:24;93293.94;;;-3.08;100.00
65376;BME280;51976;47.332;9.404;2024-01-11T02:52:50;93294.03;;;-2.94;100.00
65376;BME280;51976;47.332;9.404;2024-01-11T02:55:15;93292.47;;;-2.89;100.00
65376;BME280;51976;47.332;9.404;2024-01-11T02:57:40;93292.47;;;-3.10;100.00
65376;BME280;51976;47.332;9.404;2024-01-11T03:00:06;93283.75;;;-3.32;100.00
65376;BME280;51976;47.332;9.404;2024-01-11T03:02:32;93295.56;;;-3.07;100.00
65376;BME280;51976;47.332;9.404;2024-01-11T03:04:57;93281.84;;;-2.95;100.00
65376;BME280;51976;47.332;9.404;2024-01-11T03:07:22;93280.91;;;-2.88;100.00
65376;BME280;51976;47.332;9.404;2024-01-11T03:09:48;93275.06;;;-2.83;100.00
65376;BME280;51976;47.332;9.404;2024-01-11T03:12:13;93274.09;;;-3.03;100.00
65376;BME280;51976;47.332;9.404;2024-01-11T03:14:39;93280.59;;;-3.63;100.00
65376;BME280;51976;47.332;9.404;2024-01-11T03:17:05;93272.88;;;-3.80;100.00
65376;BME280;51976;47.332;9.404;2024-01-11T03:19:30;93282.81;;;-3.96;100.00
65376;BME280;51976;47.332;9.404;2024-01-11T03:21:55;93281.59;;;-3.79;100.00
65376;BME280;51976;47.332;9.404;2024-01-11T03:24:21;93273.06;;;-3.66;100.00
65376;BME280;51976;47.332;9.404;2024-01-11T03:26:47;93266.03;;;-3.59;100.00
65376;BME280;51976;47.332;9.404;2024-01-11T03:29:13;93270.88;;;-3.42;100.00
65376;BME280;51976;47.332;9.404;2024-01-11T03:31:38;93262.47;;;-3.30;100.00
65376;BME280;51976;47.332;9.404;2024-01-11T03:34:07;93261.47;;;-3.29;100.00
65376;BME280;51976;47.332;9.404;2024-01-11T03:36:32;93259.44;;;-3.27;100.00
65376;BME280;51976;47.332;9.404;2024-01-11T03:38:58;93262.72;;;-3.47;100.00
65376;BME280;51976;47.332;9.404;2024-01-11T03:41:23;93263.84;;;-3.92;100.00
65376;BME280;51976;47.332;9.404;2024-01-11T03:43:50;93265.53;;;-4.20;100.00
65376;BME280;51976;47.332;9.404;2024-01-11T03:46:15;93263.25;;;-4.23;100.00
65376;BME280;51976;47.332;9.404;2024-01-11T03:48:41;93263.06;;;-4.22;100.00
65376;BME280;51976;47.332;9.404;2024-01-11T03:51:06;93262.34;;;-4.16;100.00
65376;BME280;51976;47.332;9.404;2024-01-11T03:53:35;93257.94;;;-4.09;100.00
65376;BME280;51976;47.332;9.404;2024-01-11T03:56:01;93258.22;;;-3.89;100.00
65376;BME280;51976;47.332;9.404;2024-01-11T03:58:27;93258.50;;;-3.62;100.00
65376;BME280;51976;47.332;9.404;2024-01-11T04:00:52;93257.59;;;-3.69;100.00
65376;BME280;51976;47.332;9.404;2024-01-11T04:03:17;93251.28;;;-3.54;100.00
65376;BME280;51976;47.332;9.404;2024-01-11T04:05:43;93257.03;;;-3.86;100.00
65376;BME280;51976;47.332;9.404;2024-01-11T04:08:08;93254.50;;;-4.09;100.00
65376;BME280;51976;47.332;9.404;2024-01-11T04:10:34;93260.06;;;-4.33;100.00
65376;BME280;51976;47.332;9.404;2024-01-11T04:12:59;93257.81;;;-4.51;100.00
65376;BME280;51976;47.332;9.404;2024-01-11T04:15:25;93258.00;;;-4.38;100.00
65376;BME280;51976;47.332;9.404;2024-01-11T04:17:50;93260.97;;;-4.26;100.00
65376;BME280;51976;47.332;9.404;2024-01-11T04:20:16;93261.53;;;-4.16;100.00
65376;BME280;51976;47.332;9.404;2024-01-11T04:22:41;93267.50;;;-4.22;100.00
65376;BME280;51976;47.332;9.404;2024-01-11T04:25:07;93267.16;;;-4.19;100.00
65376;BME280;51976;47.332;9.404;2024-01-11T04:27:32;93266.97;;;-4.32;100.00
65376;BME280;51976;47.332;9.404;2024-01-11T04:29:58;93260.16;;;-4.56;100.00
65376;BME280;51976;47.332;9.404;2024-01-11T04:32:23;93267.41;;;-4.73;100.00
65376;BME280;51976;47.332;9.404;2024-01-11T04:34:48;93280.13;;;-4.62;100.00
65376;BME280;51976;47.332;9.404;2024-01-11T04:37:14;93281.84;;;-4.54;100.00
65376;BME280;51976;47.332;9.404;2024-01-11T04:39:39;93271.69;;;-4.72;100.00
65376;BME280;51976;47.332;9.404;2024-01-11T04:42:05;93270.97;;;-4.51;100.00
65376;BME280;51976;47.332;9.404;2024-01-11T04:44:30;93270.69;;;-4.12;100.00
65376;BME280;51976;47.332;9.404;2024-01-11T04:46:56;93265.41;;;-3.97;100.00
65376;BME280;51976;47.332;9.404;2024-01-11T04:49:22;93265.88;;;-4.23;100.00
65376;BME280;51976;47.332;9.404;2024-01-11T04:51:47;93265.81;;;-4.45;100.00
65376;BME280;51976;47.332;9.404;2024-01-11T04:54:12;93266.25;;;-4.41;100.00
65376;BME280;51976;47.332;9.404;2024-01-11T04:56:38;93260.25;;;-4.20;100.00
65376;BME280;51976;47.332;9.404;2024-01-11T04:59:03;93261.63;;;-4.39;100.00
65376;BME280;51976;47.332;9.404;2024-01-11T05:01:29;93269.59;;;-4.62;100.00
65376;BME280;51976;47.332;9.404;2024-01-11T05:03:54;93262.63;;;-4.55;100.00
65376;BME280;51976;47.332;9.404;2024-01-11T05:06:21;93261.53;;;-4.46;100.00
65376;BME280;51976;47.332;9.404;2024-01-11T05:08:49;93253.91;;;-4.70;100.00
65376;BME280;51976;47.332;9.404;2024-01-11T05:11:17;93252.09;;;-4.40;100.00
65376;BME280;51976;47.332;9.404;2024-01-11T05:13:42;93255.06;;;-4.28;100.00
65376;BME280;51976;47.332;9.404;2024-01-11T05:16:26;93252.28;;;-4.41;100.00
65376;BME280;51976;47.332;9.404;2024-01-11T05:18:53;93258.16;;;-4.25;100.00
65376;BME280;51976;47.332;9.404;2024-01-11T05:21:19;93253.22;;;-3.98;100.00
65376;BME280;51976;47.332;9.404;2024-01-11T05:23:44;93252.13;;;-3.89;100.00
65376;BME280;51976;47.332;9.404;2024-01-11T05:26:10;93248.94;;;-3.85;100.00
65376;BME280;51976;47.332;9.404;2024-01-11T05:28:36;93253.63;;;-3.80;100.00
65376;BME280;51976;47.332;9.404;2024-01-11T05:31:05;93248.75;;;-3.83;100.00
65376;BME280;51976;47.332;9.404;2024-01-11T05:33:31;93255.13;;;-3.92;100.00
65376;BME280;51976;47.332;9.404;2024-01-11T05:35:57;93238.91;;;-4.11;100.00
65376;BME280;51976;47.332;9.404;2024-01-11T05:38:22;93231.38;;;-4.14;100.00
65376;BME280;51976;47.332;9.404;2024-01-11T05:40:48;93234.78;;;-3.98;100.00
65376;BME280;51976;47.332;9.404;2024-01-11T05:43:13;93244.81;;;-4.23;100.00
65376;BME280;51976;47.332;9.404;2024-01-11T05:45:38;93253.81;;;-4.47;100.00
65376;BME280;51976;47.332;9.404;2024-01-11T05:48:04;93257.00;;;-4.52;100.00
65376;BME280;51976;47.332;9.404;2024-01-11T05:50:31;93251.75;;;-4.66;100.00
65376;BME280;51976;47.332;9.404;2024-01-11T05:52:56;93254.91;;;-4.56;100.00
65376;BME280;51976;47.332;9.404;2024-01-11T05:55:22;93253.38;;;-4.51;100.00
65376;BME280;51976;47.332;9.404;2024-01-11T05:57:48;93256.72;;;-4.57;100.00
65376;BME280;51976;47.332;9.404;2024-01-11T06:00:14;93252.47;;;-4.43;100.00
65376;BME280;51976;47.332;9.404;2024-01-11T06:02:39;93250.72;;;-4.21;100.00
65376;BME280;51976;47.332;9.404;2024-01-11T06:05:08;93251.88;;;-4.09;100.00
65376;BME280;51976;47.332;9.404;2024-01-11T06:07:33;93263.28;;;-3.87;100.00
65376;BME280;51976;47.332;9.404;2024-01-11T06:09:59;93252.41;;;-3.99;100.00
65376;BME280;51976;47.332;9.404;2024-01-11T06:12:26;93254.63;;;-3.81;100.00
65376;BME280;51976;47.332;9.404;2024-01-11T06:14:51;93257.13;;;-3.94;100.00
65376;BME280;51976;47.332;9.404;2024-01-11T06:17:17;93256.22;;;-4.01;100.00
65376;BME280;51976;47.332;9.404;2024-01-11T06:19:42;93257.22;;;-4.02;100.00
65376;BME280;51976;47.332;9.404;2024-01-11T06:22:07;93256.84;;;-3.99;100.00
65376;BME280;51976;47.332;9.404;2024-01-11T06:24:33;93274.41;;;-4.21;100.00
65376;BME280;51976;47.332;9.404;2024-01-11T06:26:58;93284.47;;;-3.95;100.00
65376;BME280;51976;47.332;9.404;2024-01-11T06:29:24;93290.09;;;-3.84;100.00
65376;BME280;51976;47.332;9.404;2024-01-11T06:31:49;93282.69;;;-3.73;100.00
65376;BME280;51976;47.332;9.404;2024-01-11T06:34:15;93286.97;;;-3.72;100.00
65376;BME280;51976;47.332;9.404;2024-01-11T06:36:40;93283.31;;;-3.57;100.00
65376;BME280;51976;47.332;9.404;2024-01-11T06:39:05;93288.25;;;-3.47;100.00
65376;BME280;51976;47.332;9.404;2024-01-11T06:41:31;93289.69;;;-3.66;100.00
65376;BME280;51976;47.332;9.404;2024-01-11T06:43:56;93297.41;;;-3.64;100.00
65376;BME280;51976;47.332;9.404;2024-01-11T06:46:23;93284.63;;;-3.46;100.00
65376;BME280;51976;47.332;9.404;2024-01-11T06:48:48;93291.69;;;-3.47;100.00
65376;BME280;51976;47.332;9.404;2024-01-11T06:51:20;93291.50;;;-3.45;100.00
65376;BME280;51976;47.332;9.404;2024-01-11T06:53:47;93304.69;;;-3.45;100.00
65376;BME280;51976;47.332;9.404;2024-01-11T06:56:17;93303.06;;;-3.46;100.00
65376;BME280;51976;47.332;9.404;2024-01-11T06:58:45;93304.13;;;-3.41;100.00
65376;BME280;51976;47.332;9.404;2024-01-11T07:01:10;93310.41;;;-3.42;100.00
65376;BME280;51976;47.332;9.404;2024-01-11T07:03:37;93317.78;;;-3.52;100.00
65376;BME280;51976;47.332;9.404;2024-01-11T07:06:03;93318.38;;;-3.56;100.00
65376;BME280;51976;47.332;9.404;2024-01-11T07:08:29;93316.75;;;-3.36;100.00
65376;BME280;51976;47.332;9.404;2024-01-11T07:10:55;93324.50;;;-4.00;100.00
65376;BME280;51976;47.332;9.404;2024-01-11T07:13:20;93334.50;;;-4.39;100.00
65376;BME280;51976;47.332;9.404;2024-01-11T07:15:46;93330.13;;;-4.32;100.00
65376;BME280;51976;47.332;9.404;2024-01-11T07:18:13;93329.94;;;-4.46;100.00
65376;BME280;51976;47.332;9.404;2024-01-11T07:20:38;93328.03;;;-4.52;100.00
65376;BME280;51976;47.332;9.404;2024-01-11T07:23:03;93327.97;;;-4.44;100.00
65376;BME280;51976;47.332;9.404;2024-01-11T07:25:29;93331.25;;;-4.12;100.00
65376;BME280;51976;47.332;9.404;2024-01-11T07:27:56;93327.50;;;-3.88;100.00
65376;BME280;51976;47.332;9.404;2024-01-11T07:30:22;93330.50;;;-4.06;100.00
65376;BME280;51976;47.332;9.404;2024-01-11T07:32:47;93326.69;;;-4.18;100.00
65376;BME280;51976;47.332;9.404;2024-01-11T07:35:13;93332.25;;;-4.13;100.00
65376;BME280;51976;47.332;9.404;2024-01-11T07:37:39;93328.50;;;-4.04;100.00
65376;BME280;51976;47.332;9.404;2024-01-11T07:40:06;93333.59;;;-4.17;100.00
65376;BME280;51976;47.332;9.404;2024-01-11T07:42:37;93328.31;;;-4.02;100.00
65376;BME280;51976;47.332;9.404;2024-01-11T07:45:07;93334.47;;;-3.81;100.00
65376;BME280;51976;47.332;9.404;2024-01-11T07:47:33;93336.84;;;-4.00;100.00
65376;BME280;51976;47.332;9.404;2024-01-11T07:49:59;93327.75;;;-3.68;100.00
65376;BME280;51976;47.332;9.404;2024-01-11T07:52:24;93316.25;;;-3.46;100.00
65376;BME280;51976;47.332;9.404;2024-01-11T07:54:50;93321.59;;;-3.39;100.00
65376;BME280;51976;47.332;9.404;2024-01-11T07:57:15;93331.22;;;-3.32;100.00
65376;BME280;51976;47.332;9.404;2024-01-11T07:59:41;93343.25;;;-3.23;100.00
65376;BME280;51976;47.332;9.404;2024-01-11T08:02:07;93344.97;;;-3.15;100.00
65376;BME280;51976;47.332;9.404;2024-01-11T08:04:32;93346.16;;;-3.18;100.00
65376;BME280;51976;47.332;9.404;2024-01-11T08:06:58;93353.56;;;-3.07;100.00
65376;BME280;51976;47.332;9.404;2024-01-11T08:09:25;93344.66;;;-3.05;100.00
65376;BME280;51976;47.332;9.404;2024-01-11T08:11:51;93343.97;;;-2.93;100.00
65376;BME280;51976;47.332;9.404;2024-01-11T08:14:18;93349.75;;;-3.04;100.00
65376;BME280;51976;47.332;9.404;2024-01-11T08:16:43;93352.44;;;-2.97;100.00
65376;BME280;51976;47.332;9.404;2024-01-11T08:19:09;93358.66;;;-2.84;100.00
65376;BME280;51976;47.332;9.404;2024-01-11T08:21:35;93362.50;;;-2.86;100.00
65376;BME280;51976;47.332;9.404;2024-01-11T08:24:01;93359.09;;;-2.80;100.00
65376;BME280;51976;47.332;9.404;2024-01-11T08:26:28;93359.41;;;-2.68;100.00
65376;BME280;51976;47.332;9.404;2024-01-11T08:28:55;93360.78;;;-2.73;100.00
65376;BME280;51976;47.332;9.404;2024-01-11T08:31:21;93363.31;;;-2.86;100.00
65376;BME280;51976;47.332;9.404;2024-01-11T08:33:46;93357.72;;;-2.97;100.00
65376;BME280;51976;47.332;9.404;2024-01-11T08:36:14;93353.88;;;-2.95;100.00
65376;BME280;51976;47.332;9.404;2024-01-11T08:38:42;93357.84;;;-3.05;100.00
65376;BME280;51976;47.332;9.404;2024-01-11T08:41:08;93362.97;;;-3.55;100.00
65376;BME280;51976;47.332;9.404;2024-01-11T08:43:33;93364.28;;;-3.29;100.00
65376;BME280;51976;47.332;9.404;2024-01-11T08:45:59;93365.69;;;-3.12;100.00
65376;BME280;51976;47.332;9.404;2024-01-11T08:48:25;93375.50;;;-3.42;100.00
65376;BME280;51976;47.332;9.404;2024-01-11T08:50:51;93381.16;;;-3.60;100.00
65376;BME280;51976;47.332;9.404;2024-01-11T08:53:16;93379.03;;;-3.35;100.00
65376;BME280;51976;47.332;9.404;2024-01-11T08:55:42;93362.59;;;-3.16;100.00
65376;BME280;51976;47.332;9.404;2024-01-11T08:58:08;93355.81;;;-3.25;100.00
65376;BME280;51976;47.332;9.404;2024-01-11T09:00:34;93361.03;;;-3.10;100.00
65376;BME280;51976;47.332;9.404;2024-01-11T09:02:59;93365.44;;;-2.96;100.00
65376;BME280;51976;47.332;9.404;2024-01-11T09:05:25;93357.66;;;-2.83;100.00
65376;BME280;51976;47.332;9.404;2024-01-11T09:07:50;93362.00;;;-2.75;100.00
65376;BME280;51976;47.332;9.404;2024-01-11T09:10:16;93363.75;;;-2.61;100.00
65376;BME280;51976;47.332;9.404;2024-01-11T09:12:41;93365.13;;;-2.65;100.00
65376;BME280;51976;47.332;9.404;2024-01-11T09:15:07;93364.69;;;-2.47;100.00
65376;BME280;51976;47.332;9.404;2024-01-11T09:17:33;93358.44;;;-2.40;100.00
65376;BME280;51976;47.332;9.404;2024-01-11T09:19:58;93364.41;;;-2.31;100.00
65376;BME280;51976;47.332;9.404;2024-01-11T09:22:24;93358.59;;;-2.20;100.00
65376;BME280;51976;47.332;9.404;2024-01-11T09:24:49;93364.19;;;-2.29;100.00
65376;BME280;51976;47.332;9.404;2024-01-11T09:27:17;93364.78;;;-2.34;100.00
65376;BME280;51976;47.332;9.404;2024-01-11T09:29:43;93370.06;;;-2.34;100.00
65376;BME280;51976;47.332;9.404;2024-01-11T09:32:09;93379.91;;;-2.21;100.00
65376;BME280;51976;47.332;9.404;2024-01-11T09:34:35;93380.63;;;-2.06;100.00
65376;BME280;51976;47.332;9.404;2024-01-11T09:37:01;93393.75;;;-2.19;100.00
65376;BME280;51976;47.332;9.404;2024-01-11T09:39:26;93396.66;;;-2.08;100.00
65376;BME280;51976;47.332;9.404;2024-01-11T09:41:58;93393.44;;;-2.03;100.00
65376;BME280;51976;47.332;9.404;2024-01-11T09:44:25;93388.28;;;-2.11;100.00
65376;BME280;51976;47.332;9.404;2024-01-11T09:46:53;93390.09;;;-2.40;100.00
65376;BME280;51976;47.332;9.404;2024-01-11T09:49:21;93395.13;;;-2.45;100.00
65376;BME280;51976;47.332;9.404;2024-01-11T09:51:50;93397.97;;;-2.46;100.00
65376;BME280;51976;47.332;9.404;2024-01-11T09:54:18;93392.50;;;-2.66;100.00
65376;BME280;51976;47.332;9.404;2024-01-11T09:56:46;93393.91;;;-2.70;100.00
65376;BME280;51976;47.332;9.404;2024-01-11T09:59:20;93393.59;;;-2.82;100.00
65376;BME280;51976;47.332;9.404;2024-01-11T10:01:50;93402.06;;;-2.86;100.00
65376;BME280;51976;47.332;9.404;2024-01-11T10:04:16;93398.50;;;-2.79;100.00
65376;BME280;51976;47.332;9.404;2024-01-11T10:06:42;93396.78;;;-2.86;100.00
65376;BME280;51976;47.332;9.404;2024-01-11T10:09:10;93397.16;;;-2.68;100.00
65376;BME280;51976;47.332;9.404;2024-01-11T10:11:37;93395.03;;;-2.58;100.00
65376;BME280;51976;47.332;9.404;2024-01-11T10:14:04;93397.91;;;-2.31;100.00
65376;BME280;51976;47.332;9.404;2024-01-11T10:16:32;93415.81;;;-2.27;100.00
65376;BME280;51976;47.332;9.404;2024-01-11T10:18:57;93413.50;;;-2.36;100.00
65376;BME280;51976;47.332;9.404;2024-01-11T10:21:24;93411.59;;;-2.43;100.00
65376;BME280;51976;47.332;9.404;2024-01-11T10:23:51;93399.94;;;-2.55;100.00
65376;BME280;51976;47.332;9.404;2024-01-11T10:26:18;93413.69;;;-2.38;100.00
65376;BME280;51976;47.332;9.404;2024-01-11T10:28:47;93408.88;;;-2.56;100.00
65376;BME280;51976;47.332;9.404;2024-01-11T10:31:13;93401.81;;;-2.70;100.00
65376;BME280;51976;47.332;9.404;2024-01-11T10:33:41;93395.88;;;-2.79;100.00
65376;BME280;51976;47.332;9.404;2024-01-11T10:36:06;93390.88;;;-2.67;100.00
65376;BME280;51976;47.332;9.404;2024-01-11T10:38:36;93395.53;;;-2.69;100.00
65376;BME280;51976;47.332;9.404;2024-01-11T10:41:05;93412.03;;;-3.03;100.00
65376;BME280;51976;47.332;9.404;2024-01-11T10:43:32;93406.81;;;-2.96;100.00
65376;BME280;51976;47.332;9.404;2024-01-11T10:46:01;93404.25;;;-2.90;100.00
65376;BME280;51976;47.332;9.404;2024-01-11T10:48:30;93408.25;;;-2.79;100.00
65376;BME280;51976;47.332;9.404;2024-01-11T10:51:00;93408.16;;;-2.86;100.00
65376;BME280;51976;47.332;9.404;2024-01-11T10:53:44;93411.50;;;-2.77;100.00
65376;BME280;51976;47.332;9.404;2024-01-11T10:56:15;93414.41;;;-2.51;100.00
65376;BME280;51976;47.332;9.404;2024-01-11T10:58:43;93412.13;;;-2.54;100.00
65376;BME280;51976;47.332;9.404;2024-01-11T11:01:10;93427.22;;;-2.48;100.00
65376;BME280;51976;47.332;9.404;2024-01-11T11:03:36;93411.19;;;-2.18;100.00
65376;BME280;51976;47.332;9.404;2024-01-11T11:06:04;93416.22;;;-2.51;100.00
65376;BME280;51976;47.332;9.404;2024-01-11T11:08:31;93409.16;;;-2.44;100.00
65376;BME280;51976;47.332;9.404;2024-01-11T11:10:57;93406.09;;;-2.48;100.00
65376;BME280;51976;47.332;9.404;2024-01-11T11:13:24;93409.34;;;-2.67;100.00
65376;BME280;51976;47.332;9.404;2024-01-11T11:15:49;93408.13;;;-2.50;100.00
65376;BME280;51976;47.332;9.404;2024-01-11T11:18:16;93406.50;;;-2.44;100.00
65376;BME280;51976;47.332;9.404;2024-01-11T11:20:42;93392.69;;;-2.46;100.00
65376;BME280;51976;47.332;9.404;2024-01-11T11:23:09;93388.78;;;-2.29;100.00
65376;BME280;51976;47.332;9.404;2024-01-11T11:25:36;93383.44;;;-2.35;100.00
65376;BME280;51976;47.332;9.404;2024-01-11T11:28:03;93378.84;;;-2.27;100.00
65376;BME280;51976;47.332;9.404;2024-01-11T11:30:37;93384.41;;;-2.15;100.00
65376;BME280;51976;47.332;9.404;2024-01-11T11:33:24;93371.69;;;-2.05;100.00
65376;BME280;51976;47.332;9.404;2024-01-11T11:35:54;93365.78;;;-2.07;100.00
65376;BME280;51976;47.332;9.404;2024-01-11T11:38:21;93351.44;;;-2.26;100.00
65376;BME280;51976;47.332;9.404;2024-01-11T11:40:48;93359.97;;;-2.24;100.00
65376;BME280;51976;47.332;9.404;2024-01-11T11:43:16;93346.84;;;-2.39;100.00
65376;BME280;51976;47.332;9.404;2024-01-11T11:45:43;93329.31;;;-2.25;100.00
65376;BME280;51976;47.332;9.404;2024-01-11T11:51:15;93317.91;;;-2.25;100.00
65376;BME280;51976;47.332;9.404;2024-01-11T11:53:42;93315.09;;;-2.24;100.00
65376;BME280;51976;47.332;9.404;2024-01-11T11:56:09;93319.94;;;-1.93;100.00
65376;BME280;51976;47.332;9.404;2024-01-11T11:58:36;93312.56;;;-2.04;100.00
65376;BME280;51976;47.332;9.404;2024-01-11T12:01:03;93306.94;;;-1.94;100.00
65376;BME280;51976;47.332;9.404;2024-01-11T12:03:30;93305.75;;;-1.85;100.00
65376;BME280;51976;47.332;9.404;2024-01-11T12:05:57;93287.75;;;-1.68;100.00
65376;BME280;51976;47.332;9.404;2024-01-11T12:08:23;93305.47;;;-2.31;100.00
65376;BME280;51976;47.332;9.404;2024-01-11T12:10:48;93308.19;;;-2.53;100.00
65376;BME280;51976;47.332;9.404;2024-01-11T12:13:14;93300.69;;;-2.77;100.00
65376;BME280;51976;47.332;9.404;2024-01-11T12:15:40;93298.53;;;-2.39;100.00
65376;BME280;51976;47.332;9.404;2024-01-11T12:18:06;93299.13;;;-2.09;100.00
65376;BME280;51976;47.332;9.404;2024-01-11T12:20:32;93296.03;;;-1.78;100.00
65376;BME280;51976;47.332;9.404;2024-01-11T12:22:58;93289.16;;;-1.73;100.00
65376;BME280;51976;47.332;9.404;2024-01-11T12:25:24;93288.09;;;-1.78;100.00
65376;BME280;51976;47.332;9.404;2024-01-11T12:27:49;93292.22;;;-1.69;100.00
65376;BME280;51976;47.332;9.404;2024-01-11T12:30:17;93298.59;;;-1.50;100.00
65376;BME280;51976;47.332;9.404;2024-01-11T12:32:43;93297.41;;;-1.41;100.00
65376;BME280;51976;47.332;9.404;2024-01-11T12:35:11;93297.31;;;-1.61;100.00
65376;BME280;51976;47.332;9.404;2024-01-11T12:37:36;93296.81;;;-1.84;100.00
65376;BME280;51976;47.332;9.404;2024-01-11T12:40:02;93306.84;;;-1.73;100.00
65376;BME280;51976;47.332;9.404;2024-01-11T12:42:29;93297.28;;;-1.74;100.00
65376;BME280;51976;47.332;9.404;2024-01-11T12:44:56;93304.19;;;-1.73;100.00
65376;BME280;51976;47.332;9.404;2024-01-11T12:47:24;93312.94;;;-1.73;100.00